Time;durP1;ratioP1;P1;durP2;ratioP2;P2;SDS_P1;SDS_P2;PMS_P1;PMS_P2;Temp;Humidity;BMP_temperature;BMP_pressure;BME280_temperature;BME280_humidity;BME280_pressure;Samples;Min_cycle;Max_cycle;Signal;HPM_P1;HPM_P2
2023/05/10 00:01:01;;;;;;;1.55;0.45;;;19.90;1.00;;;;;;4825217;29;20517;-43
2023/05/10 00:03:27;;;;;;;0.45;0.28;;;19.90;1.00;;;;;;4824963;29;20126;-43
2023/05/10 00:05:54;;;;;;;0.93;0.47;;;19.90;1.00;;;;;;4824766;29;20046;-43
2023/05/10 00:08:21;;;;;;;0.75;0.43;;;19.90;1.00;;;;;;4825248;29;20439;-43
2023/05/10 00:10:48;;;;;;;0.90;0.50;;;19.90;1.00;;;;;;4825081;29;20046;-42
2023/05/10 00:13:16;;;;;;;0.65;0.38;;;19.80;1.00;;;;;;4824981;29;20575;-42
2023/05/10 00:15:42;;;;;;;1.20;0.60;;;19.90;1.00;;;;;;4824728;29;20127;-42
2023/05/10 00:18:09;;;;;;;0.98;0.30;;;19.90;1.00;;;;;;4819177;29;20104;-44
2023/05/10 00:20:36;;;;;;;0.52;0.30;;;19.80;1.00;;;;;;4823247;29;20042;-43
2023/05/10 00:23:03;;;;;;;1.17;0.40;;;19.90;1.00;;;;;;4875824;23;20082;-42
2023/05/10 00:25:30;;;;;;;0.80;0.50;;;19.90;1.00;;;;;;4832618;29;20038;-42
2023/05/10 00:27:57;;;;;;;0.82;0.22;;;19.80;1.00;;;;;;4837522;29;20046;-42
2023/05/10 00:30:24;;;;;;;0.57;0.30;;;19.80;1.00;;;;;;4841166;29;20275;-43
2023/05/10 00:32:51;;;;;;;0.50;0.20;;;19.80;1.00;;;;;;4837181;29;20042;-43
2023/05/10 00:35:18;;;;;;;0.80;0.47;;;19.80;1.00;;;;;;4822023;29;20039;-44
2023/05/10 00:37:45;;;;;;;1.17;0.52;;;19.80;1.00;;;;;;4838149;29;20054;-44
2023/05/10 00:40:12;;;;;;;0.95;0.30;;;19.80;1.00;;;;;;4832065;29;20133;-42
2023/05/10 00:42:40;;;;;;;1.25;0.30;;;19.80;1.00;;;;;;4840257;29;20053;-43
2023/05/10 00:45:08;;;;;;;1.25;0.30;;;19.80;1.00;;;;;;4841302;29;20046;-42
2023/05/10 00:47:35;;;;;;;1.05;0.50;;;19.80;1.00;;;;;;4842709;29;20052;-44
2023/05/10 00:50:02;;;;;;;0.50;0.15;;;19.70;1.00;;;;;;4841571;29;20507;-43
2023/05/10 00:55:31;;;;;;;0.60;0.40;;;19.70;1.00;;;;;;4819757;23;20086;-46
2023/05/10 00:57:58;;;;;;;1.20;0.52;;;19.70;1.00;;;;;;4821598;29;20141;-44
2023/05/10 01:00:25;;;;;;;1.40;0.60;;;19.70;1.00;;;;;;4824411;29;20049;-42
2023/05/10 01:02:54;;;;;;;1.67;0.40;;;19.70;1.00;;;;;;4809453;29;20419;-44
2023/05/10 01:05:21;;;;;;;0.50;0.20;;;19.70;1.00;;;;;;4823008;29;20152;-45
2023/05/10 01:07:49;;;;;;;1.85;0.65;;;19.70;1.00;;;;;;4812956;29;20042;-44
2023/05/10 01:10:16;;;;;;;1.58;0.70;;;19.70;1.00;;;;;;4807871;29;20067;-44
2023/05/10 01:12:47;;;;;;;1.00;0.38;;;19.70;1.00;;;;;;4809497;29;20082;-45
2023/05/10 01:15:16;;;;;;;0.95;0.40;;;19.70;1.00;;;;;;4816583;29;20050;-45
2023/05/10 01:17:46;;;;;;;1.17;0.40;;;19.70;1.00;;;;;;4820909;29;20069;-44
2023/05/10 01:20:14;;;;;;;0.90;0.43;;;19.70;1.00;;;;;;4822798;29;20053;-44
2023/05/10 01:23:07;;;;;;;0.50;0.30;;;19.60;1.00;;;;;;4820749;29;20099;-44
2023/05/10 01:26:01;;;;;;;1.20;0.50;;;19.60;1.00;;;;;;5045292;23;20024;31
2023/05/10 01:28:46;;;;;;;0.73;0.40;;;19.60;1.00;;;;;;4798804;29;20055;-44
2023/05/10 01:32:02;;;;;;;1.00;0.70;;;19.60;1.00;;;;;;4796377;29;20043;-44
2023/05/10 01:34:35;;;;;;;0.70;0.30;;;19.60;1.00;;;;;;4779235;29;20054;-44
2023/05/10 01:37:23;;;;;;;;;;;19.60;1.00;;;;;;4805847;29;20050;-44
2023/05/10 01:40:15;;;;;;;2.92;0.45;;;19.60;1.00;;;;;;4802723;29;19968;-44
2023/05/10 01:42:53;;;;;;;0.93;0.38;;;19.50;1.00;;;;;;4802914;29;20053;-43
2023/05/10 01:45:30;;;;;;;0.73;0.30;;;19.50;1.00;;;;;;4795797;29;20043;-45
2023/05/10 01:48:10;;;;;;;1.60;0.50;;;19.50;1.00;;;;;;4805319;29;20050;-43
2023/05/10 01:50:42;;;;;;;0.82;0.30;;;19.50;1.00;;;;;;4804073;29;20047;-43
2023/05/10 01:53:12;;;;;;;0.35;0.17;;;19.50;1.00;;;;;;4798973;29;20543;-44
2023/05/10 01:55:45;;;;;;;0.88;0.40;;;19.50;1.00;;;;;;4801830;29;20055;-44
2023/05/10 01:58:25;;;;;;;0.77;0.40;;;19.50;1.00;;;;;;4987395;23;20351;31
2023/05/10 02:00:53;;;;;;;1.15;0.30;;;19.50;1.00;;;;;;4805348;29;20126;-44
2023/05/10 02:03:24;;;;;;;0.98;0.50;;;19.50;1.00;;;;;;4794487;29;20143;-44
2023/05/10 02:05:54;;;;;;;1.20;0.35;;;19.50;1.00;;;;;;4794598;29;20043;-44
2023/05/10 02:08:22;;;;;;;0.95;0.38;;;19.50;1.00;;;;;;4799440;29;20050;-44
2023/05/10 02:10:51;;;;;;;0.63;0.30;;;19.50;1.00;;;;;;4805083;29;20047;-43
2023/05/10 02:13:19;;;;;;;0.50;0.28;;;19.50;1.00;;;;;;4803794;29;20137;-44
2023/05/10 02:15:51;;;;;;;0.70;0.43;;;19.50;1.00;;;;;;4803300;29;20051;-43
2023/05/10 02:18:18;;;;;;;0.50;0.22;;;19.40;1.00;;;;;;4804893;29;20039;-44
2023/05/10 02:20:46;;;;;;;0.50;0.30;;;19.50;1.00;;;;;;4803402;29;20104;-43
2023/05/10 02:23:17;;;;;;;0.80;0.40;;;19.40;1.00;;;;;;4803467;29;20038;-43
2023/05/10 02:25:45;;;;;;;0.50;0.20;;;19.40;1.00;;;;;;4795809;29;20055;-43
2023/05/10 02:30:58;;;;;;;0.70;0.30;;;19.40;1.00;;;;;;4790730;29;20097;-42
2023/05/10 02:33:26;;;;;;;0.57;0.30;;;19.40;1.00;;;;;;4793910;29;20070;-43
2023/05/10 02:35:54;;;;;;;0.52;0.38;;;19.40;1.00;;;;;;4786469;29;20504;-43
2023/05/10 02:38:23;;;;;;;0.60;0.30;;;19.40;1.00;;;;;;4783833;29;20046;-42
2023/05/10 02:40:52;;;;;;;0.80;0.30;;;19.40;1.00;;;;;;4785610;30;20087;-42
2023/05/10 02:43:22;;;;;;;0.63;0.32;;;19.40;1.00;;;;;;4779449;30;20040;-43
2023/05/10 02:45:49;;;;;;;0.57;0.20;;;19.40;1.00;;;;;;4799183;29;20049;-44
2023/05/10 02:48:16;;;;;;;0.47;0.22;;;19.40;1.00;;;;;;4786633;29;20051;-43
2023/05/10 02:50:45;;;;;;;0.73;0.30;;;19.30;1.00;;;;;;4785412;30;20061;-46
2023/05/10 02:53:18;;;;;;;0.60;0.25;;;19.40;1.00;;;;;;4800313;29;20079;-44
2023/05/10 02:55:51;;;;;;;0.63;0.40;;;19.40;1.00;;;;;;4786204;30;20520;-44
2023/05/10 02:58:19;;;;;;;0.57;0.20;;;19.40;1.00;;;;;;4786549;30;20045;-43
2023/05/10 03:00:46;;;;;;;1.05;0.50;;;19.30;1.00;;;;;;4777340;29;20059;-45
2023/05/10 03:03:13;;;;;;;0.38;0.30;;;19.30;1.00;;;;;;4769636;29;20047;-43
2023/05/10 03:05:39;;;;;;;0.30;0.15;;;19.30;1.00;;;;;;4778960;30;20062;-43
2023/05/10 03:08:07;;;;;;;1.08;0.30;;;19.30;1.00;;;;;;4775672;29;20474;-43
2023/05/10 03:10:40;;;;;;;0.82;0.47;;;19.30;1.00;;;;;;4777152;30;20055;-43
2023/05/10 03:13:24;;;;;;;0.55;0.35;;;19.30;1.00;;;;;;4775356;30;20047;-43
2023/05/10 03:16:15;;;;;;;0.60;0.30;;;19.30;1.00;;;;;;4788448;30;20059;-43
2023/05/10 03:18:49;;;;;;;0.63;0.25;;;19.30;1.00;;;;;;4784587;30;20094;-44
2023/05/10 03:21:18;;;;;;;0.90;0.57;;;19.30;1.00;;;;;;4789970;30;20075;-43
2023/05/10 03:23:51;;;;;;;0.60;0.30;;;19.30;1.00;;;;;;4803561;29;20043;-43
2023/05/10 03:26:23;;;;;;;0.77;0.30;;;19.20;1.00;;;;;;4780238;30;20054;-43
2023/05/10 03:28:52;;;;;;;0.57;0.30;;;19.30;1.00;;;;;;4767378;30;20592;-43
2023/05/10 03:31:19;;;;;;;0.75;0.40;;;19.20;1.00;;;;;;4921384;24;20058;-43
2023/05/10 03:33:51;;;;;;;3.45;1.20;;;19.20;1.00;;;;;;4843029;29;20058;-44
2023/05/10 03:36:23;;;;;;;2.67;0.60;;;19.20;1.00;;;;;;4820290;29;20043;-44
2023/05/10 03:38:50;;;;;;;24.80;0.85;;;19.20;1.00;;;;;;4818560;29;20045;-44
2023/05/10 03:41:17;;;;;;;2.90;0.43;;;19.20;1.00;;;;;;4813302;29;20112;-44
2023/05/10 03:43:44;;;;;;;4.22;0.70;;;19.20;1.00;;;;;;4811870;29;20043;-43
2023/05/10 03:46:11;;;;;;;2.95;1.20;;;19.20;1.00;;;;;;4805413;29;20055;-44
2023/05/10 03:48:38;;;;;;;8.07;1.85;;;19.20;1.00;;;;;;4818000;29;20571;-44
2023/05/10 03:51:06;;;;;;;2.70;1.45;;;19.20;1.00;;;;;;4805365;29;20042;-43
2023/05/10 03:53:33;;;;;;;4.97;1.50;;;19.10;1.00;;;;;;4806095;29;20460;-45
2023/05/10 03:55:59;;;;;;;4.60;1.35;;;19.10;1.00;;;;;;4811196;29;20411;-43
2023/05/10 03:58:26;;;;;;;3.10;1.15;;;19.10;1.00;;;;;;4798861;29;20101;-43
2023/05/10 04:00:53;;;;;;;1.80;1.08;;;19.10;1.00;;;;;;5079871;24;20231;-43
2023/05/10 04:03:20;;;;;;;2.80;1.13;;;19.10;1.00;;;;;;4819489;29;20069;-43
2023/05/10 04:05:47;;;;;;;5.65;1.73;;;19.10;1.00;;;;;;4796831;29;20108;-43
2023/05/10 04:08:16;;;;;;;2.13;1.23;;;19.10;1.00;;;;;;4807742;29;20054;-43
2023/05/10 04:10:43;;;;;;;3.45;1.50;;;19.10;1.00;;;;;;4803507;29;20047;-43
2023/05/10 04:13:10;;;;;;;4.20;1.33;;;19.10;1.00;;;;;;4806204;29;20512;-43
2023/05/10 04:15:37;;;;;;;5.03;1.67;;;19.10;1.00;;;;;;4799041;29;20047;-43
2023/05/10 04:18:04;;;;;;;2.58;1.30;;;19.00;1.00;;;;;;4804708;29;20135;-43
2023/05/10 04:20:34;;;;;;;2.55;1.42;;;19.00;1.00;;;;;;4820122;29;20150;-43
2023/05/10 04:23:01;;;;;;;3.00;1.40;;;19.00;1.00;;;;;;4794500;29;20043;-43
2023/05/10 04:25:27;;;;;;;2.10;1.30;;;19.00;1.00;;;;;;4789619;29;20047;-44
2023/05/10 04:27:54;;;;;;;2.03;1.10;;;19.00;1.00;;;;;;4800542;29;20080;-43
2023/05/10 04:30:21;;;;;;;2.97;1.45;;;19.00;1.00;;;;;;4792121;29;20043;-43
2023/05/10 04:33:20;;;;;;;3.15;1.35;;;19.00;1.00;;;;;;4791184;29;20127;-43
2023/05/10 04:35:47;;;;;;;3.15;1.45;;;19.00;1.00;;;;;;4806633;29;20051;-44
2023/05/10 04:38:13;;;;;;;1.95;1.20;;;19.00;1.00;;;;;;4824334;29;20540;-44
2023/05/10 04:40:40;;;;;;;2.22;1.33;;;18.90;1.00;;;;;;4816569;29;20133;-45
2023/05/10 04:43:07;;;;;;;4.57;1.40;;;18.90;1.00;;;;;;4817071;29;20034;-44
2023/05/10 04:45:33;;;;;;;3.45;1.23;;;18.90;1.00;;;;;;4809542;29;20050;-43
2023/05/10 04:48:00;;;;;;;4.90;1.70;;;19.00;1.00;;;;;;4808830;29;20110;-44
2023/05/10 04:50:27;;;;;;;3.83;1.15;;;19.00;1.00;;;;;;4812639;29;20043;-43
2023/05/10 04:52:54;;;;;;;3.53;1.17;;;19.00;1.00;;;;;;4823546;29;20130;-44
2023/05/10 04:55:20;;;;;;;4.50;1.75;;;19.00;1.00;;;;;;4819213;29;20487;-43
2023/05/10 04:57:47;;;;;;;3.15;1.20;;;19.00;1.00;;;;;;4814284;29;20053;-43
2023/05/10 05:00:14;;;;;;;4.78;1.45;;;18.90;1.00;;;;;;4812249;29;20055;-43
2023/05/10 05:02:45;;;;;;;2.80;0.93;;;19.00;1.00;;;;;;4805737;29;20460;-43
2023/05/10 05:05:12;;;;;;;2.10;1.48;;;18.90;1.00;;;;;;4805319;29;20035;-43
2023/05/10 05:07:39;;;;;;;2.95;1.63;;;19.00;1.00;;;;;;4821201;29;20054;-43
2023/05/10 05:10:08;;;;;;;1.42;1.10;;;18.90;1.00;;;;;;4810884;29;20139;-43
2023/05/10 05:12:35;;;;;;;2.00;1.13;;;18.90;1.00;;;;;;4812686;29;20121;-43
2023/05/10 05:15:02;;;;;;;2.55;1.38;;;18.90;1.00;;;;;;4808665;29;20395;-43
2023/05/10 05:17:32;;;;;;;4.47;1.45;;;18.90;1.00;;;;;;4823779;29;20110;-45
2023/05/10 05:19:59;;;;;;;2.83;1.33;;;18.90;1.00;;;;;;4813869;29;20061;-44
2023/05/10 05:22:28;;;;;;;3.60;1.50;;;18.90;1.00;;;;;;4818901;29;20075;-43
2023/05/10 05:24:56;;;;;;;1.73;1.30;;;18.90;1.00;;;;;;4823564;29;20039;-43
2023/05/10 05:27:24;;;;;;;2.10;1.20;;;18.90;1.00;;;;;;4810892;29;20039;-43
2023/05/10 05:29:52;;;;;;;2.45;1.50;;;18.90;1.00;;;;;;4806687;29;20124;-43
2023/05/10 05:32:19;;;;;;;2.05;1.27;;;18.90;1.00;;;;;;4817821;29;20122;-44
2023/05/10 05:34:46;;;;;;;4.07;1.85;;;18.90;1.00;;;;;;4805478;29;20350;-43
2023/05/10 05:37:17;;;;;;;1.90;1.05;;;18.90;1.00;;;;;;4809373;29;20053;-43
2023/05/10 05:39:45;;;;;;;1.75;1.42;;;18.80;1.00;;;;;;4823195;29;20472;-43
2023/05/10 05:42:13;;;;;;;1.67;1.35;;;18.80;1.00;;;;;;4823754;29;20054;-43
2023/05/10 05:44:40;;;;;;;2.55;1.55;;;18.80;1.00;;;;;;4823242;29;20534;-44
2023/05/10 05:47:06;;;;;;;2.25;1.83;;;18.80;1.00;;;;;;4808504;29;20046;-44
2023/05/10 05:49:33;;;;;;;4.22;1.50;;;18.80;1.00;;;;;;4823406;29;20058;-44
2023/05/10 05:52:01;;;;;;;5.90;1.77;;;18.80;1.00;;;;;;4805743;29;20055;-44
2023/05/10 05:54:29;;;;;;;1.98;1.77;;;18.80;1.00;;;;;;4818397;29;20459;-43
2023/05/10 05:56:57;;;;;;;3.25;1.40;;;18.80;1.00;;;;;;4815387;29;20495;-43
2023/05/10 05:59:27;;;;;;;3.05;1.40;;;18.80;1.00;;;;;;4817786;29;20484;-44
2023/05/10 06:01:54;;;;;;;2.17;1.50;;;18.80;1.00;;;;;;4804904;29;20496;-44
2023/05/10 06:04:20;;;;;;;2.88;2.10;;;18.80;1.00;;;;;;4817476;29;20050;-43
2023/05/10 06:06:47;;;;;;;2.00;1.48;;;18.80;1.00;;;;;;4932466;23;20423;-43
2023/05/10 06:09:14;;;;;;;2.38;1.73;;;18.80;1.00;;;;;;4831336;29;20041;-43
2023/05/10 06:11:41;;;;;;;2.85;1.75;;;18.80;1.00;;;;;;4833903;29;20607;-44
2023/05/10 06:14:08;;;;;;;2.50;1.60;;;18.80;1.00;;;;;;4833468;29;20494;-44
2023/05/10 06:16:35;;;;;;;3.92;1.58;;;18.80;1.00;;;;;;4841026;29;20391;-43
2023/05/10 06:19:02;;;;;;;2.55;1.67;;;18.80;1.00;;;;;;4840806;29;20056;-44
2023/05/10 06:21:29;;;;;;;2.42;1.92;;;18.80;1.00;;;;;;4834236;29;20121;-43
2023/05/10 06:23:57;;;;;;;2.28;1.60;;;18.80;1.00;;;;;;4828966;29;20046;-43
2023/05/10 06:26:23;;;;;;;3.03;1.77;;;18.80;1.00;;;;;;4840791;29;20042;-45
2023/05/10 06:28:50;;;;;;;2.60;1.45;;;18.80;1.00;;;;;;4840838;29;20042;-43
2023/05/10 06:31:17;;;;;;;2.10;1.42;;;18.70;1.00;;;;;;4836872;29;20109;-43
2023/05/10 06:33:44;;;;;;;2.20;1.40;;;18.80;1.00;;;;;;4830107;29;20475;-44
2023/05/10 06:36:11;;;;;;;4.13;1.80;;;18.80;1.00;;;;;;5170688;23;20110;-44
2023/05/10 06:38:38;;;;;;;2.72;1.70;;;18.80;1.00;;;;;;4836832;29;20038;-43
2023/05/10 06:41:05;;;;;;;2.83;1.75;;;18.80;1.00;;;;;;4837750;29;20054;-43
2023/05/10 06:43:32;;;;;;;3.58;1.73;;;18.80;1.00;;;;;;4828116;29;20038;-43
2023/05/10 06:45:59;;;;;;;2.92;1.70;;;18.70;1.00;;;;;;4840338;29;20046;-44
2023/05/10 06:48:26;;;;;;;2.67;1.55;;;18.80;1.00;;;;;;4839595;29;20042;-43
2023/05/10 06:50:52;;;;;;;3.65;1.90;;;18.80;1.00;;;;;;4840566;29;20046;-43
2023/05/10 06:53:19;;;;;;;2.33;2.03;;;18.70;1.00;;;;;;4833110;29;20042;-43
2023/05/10 06:55:46;;;;;;;2.80;1.80;;;18.80;1.00;;;;;;4840115;29;20046;-44
2023/05/10 06:58:13;;;;;;;4.70;2.08;;;18.70;1.00;;;;;;4833401;29;20042;-47
2023/05/10 07:00:43;;;;;;;3.25;1.92;;;18.80;1.00;;;;;;4840603;29;20042;-43
2023/05/10 07:03:10;;;;;;;1.83;1.60;;;18.70;1.00;;;;;;4829769;29;20554;-43
2023/05/10 07:05:37;;;;;;;2.50;1.80;;;18.70;1.00;;;;;;4836272;29;20046;-43
2023/05/10 07:08:08;;;;;;;2.63;2.00;;;18.70;1.00;;;;;;4854793;23;20038;-42
2023/05/10 07:10:35;;;;;;;2.53;1.95;;;18.70;1.00;;;;;;4810791;29;20058;-43
2023/05/10 07:13:02;;;;;;;3.38;1.80;;;18.70;1.00;;;;;;4821976;29;20047;-43
2023/05/10 07:15:29;;;;;;;2.70;2.08;;;18.70;1.00;;;;;;4816988;29;20431;-44
2023/05/10 07:17:56;;;;;;;2.00;1.58;;;18.70;1.00;;;;;;4820158;29;20086;-44
2023/05/10 07:20:23;;;;;;;2.53;1.92;;;18.70;1.00;;;;;;4814818;29;20517;-43
2023/05/10 07:22:49;;;;;;;2.17;1.60;;;18.70;1.00;;;;;;4814095;29;20561;-43
2023/05/10 07:25:16;;;;;;;1.92;1.70;;;18.70;1.00;;;;;;4804140;29;20415;-43
2023/05/10 07:27:43;;;;;;;2.60;1.75;;;18.70;1.00;;;;;;4807552;29;20078;-43
2023/05/10 07:30:11;;;;;;;2.53;1.75;;;18.70;1.00;;;;;;4813414;29;20415;-44
2023/05/10 07:32:39;;;;;;;3.13;1.88;;;18.70;1.00;;;;;;4822208;29;20057;-43
2023/05/10 07:35:06;;;;;;;3.17;2.35;;;18.70;1.00;;;;;;4819579;29;20063;-43
2023/05/10 07:37:33;;;;;;;3.55;2.30;;;18.70;1.00;;;;;;4811645;29;20389;-43
2023/05/10 07:40:00;;;;;;;3.00;2.22;;;18.70;1.00;;;;;;4820608;29;20096;-43
2023/05/10 07:42:27;;;;;;;3.78;2.28;;;18.70;1.00;;;;;;4822003;29;20057;-44
2023/05/10 07:44:54;;;;;;;2.75;2.20;;;18.70;1.00;;;;;;4820798;29;20491;-43
2023/05/10 07:47:20;;;;;;;2.45;1.73;;;18.70;1.00;;;;;;4803839;29;20471;-44
2023/05/10 07:49:47;;;;;;;3.75;1.90;;;18.70;1.00;;;;;;4811415;29;20046;-47
2023/05/10 07:52:15;;;;;;;2.72;2.03;;;18.70;1.00;;;;;;4799875;29;20521;-44
2023/05/10 07:54:41;;;;;;;3.30;1.98;;;18.70;1.00;;;;;;4822789;29;20111;-44
2023/05/10 07:57:08;;;;;;;3.10;2.03;;;18.70;1.00;;;;;;4817295;29;20845;-43
2023/05/10 07:59:35;;;;;;;2.70;2.00;;;18.70;1.00;;;;;;4819188;29;20042;-44
2023/05/10 08:02:02;;;;;;;4.15;2.10;;;18.70;1.00;;;;;;4816021;29;20095;-43
2023/05/10 08:04:28;;;;;;;3.33;2.33;;;18.70;1.00;;;;;;4812420;29;20049;-45
2023/05/10 08:06:55;;;;;;;5.05;2.55;;;18.70;1.00;;;;;;4821635;29;20491;-43
2023/05/10 08:09:23;;;;;;;3.67;2.33;;;18.70;1.00;;;;;;4811008;29;20107;-43
2023/05/10 08:11:50;;;;;;;3.15;2.50;;;18.70;1.00;;;;;;4817181;29;20054;-44
2023/05/10 08:14:17;;;;;;;3.25;2.10;;;18.70;1.00;;;;;;4817271;29;20049;-43
2023/05/10 08:16:44;;;;;;;4.75;2.10;;;18.70;1.00;;;;;;4824734;29;20066;-44
2023/05/10 08:19:11;;;;;;;4.63;2.40;;;18.70;1.00;;;;;;4814308;29;20534;-44
2023/05/10 08:21:40;;;;;;;5.30;2.42;;;18.70;1.00;;;;;;4820209;29;20125;-43
2023/05/10 08:24:07;;;;;;;3.10;2.05;;;18.70;1.00;;;;;;4816918;29;20046;-44
2023/05/10 08:26:33;;;;;;;3.95;2.55;;;18.70;1.00;;;;;;4824424;29;20129;-43
2023/05/10 08:29:00;;;;;;;3.00;2.13;;;18.70;1.00;;;;;;4815848;29;20058;-43
2023/05/10 08:31:27;;;;;;;3.45;2.50;;;18.70;1.00;;;;;;4811238;29;20046;-43
2023/05/10 08:33:54;;;;;;;4.43;2.40;;;18.70;1.00;;;;;;4824246;29;20499;-43
2023/05/10 08:36:23;;;;;;;3.45;2.45;;;18.70;1.00;;;;;;4820499;29;20051;-43
2023/05/10 08:38:53;;;;;;;4.07;2.25;;;18.70;1.00;;;;;;4821463;29;20046;-44
2023/05/10 08:41:21;;;;;;;4.25;2.30;;;18.70;1.00;;;;;;4952354;23;20073;-44
2023/05/10 08:43:49;;;;;;;3.63;2.10;;;18.70;1.00;;;;;;4835340;29;20078;-44
2023/05/10 08:46:18;;;;;;;3.85;2.70;;;18.70;1.00;;;;;;4834647;29;20041;-43
2023/05/10 08:48:46;;;;;;;2.92;2.20;;;18.70;1.00;;;;;;4834959;29;20110;-43
2023/05/10 08:51:14;;;;;;;4.15;2.50;;;18.70;1.00;;;;;;4842473;29;20053;-43
2023/05/10 08:53:42;;;;;;;5.18;3.03;;;18.70;1.00;;;;;;4842496;29;20050;-44
2023/05/10 08:56:09;;;;;;;5.30;2.95;;;18.70;1.00;;;;;;4831252;29;20615;-44
2023/05/10 08:58:37;;;;;;;4.30;2.83;;;18.70;1.00;;;;;;4834526;29;20433;-44
2023/05/10 09:01:05;;;;;;;4.05;2.50;;;18.70;1.00;;;;;;4833188;29;20128;-43
2023/05/10 09:03:32;;;;;;;4.75;2.67;;;18.70;1.00;;;;;;4831576;29;20050;-43
2023/05/10 09:05:59;;;;;;;3.63;2.35;;;18.70;1.00;;;;;;4838798;29;20054;-44
2023/05/10 09:08:26;;;;;;;3.45;2.47;;;18.70;1.00;;;;;;4831584;29;20034;-46
2023/05/10 09:10:57;;;;;;;4.00;2.92;;;18.70;1.00;;;;;;4982963;23;20258;-42
2023/05/10 09:13:25;;;;;;;4.68;2.88;;;18.70;1.00;;;;;;4836438;29;20042;-43
2023/05/10 09:15:53;;;;;;;5.60;2.65;;;18.70;1.00;;;;;;4834153;29;20084;-44
2023/05/10 09:18:20;;;;;;;3.95;3.08;;;18.70;1.00;;;;;;4820478;29;20398;-44
2023/05/10 09:20:48;;;;;;;5.43;2.60;;;18.70;1.00;;;;;;4835004;29;20047;-44
2023/05/10 09:23:15;;;;;;;5.47;3.25;;;18.70;1.00;;;;;;4823641;29;20465;-45
2023/05/10 09:25:42;;;;;;;4.68;3.63;;;18.70;1.00;;;;;;4823646;29;20043;-45
2023/05/10 09:28:10;;;;;;;3.75;2.92;;;18.70;1.00;;;;;;4831926;29;20137;-44
2023/05/10 09:30:37;;;;;;;4.00;2.65;;;18.70;1.00;;;;;;4836808;29;20493;-43
2023/05/10 09:33:04;;;;;;;5.50;3.83;;;18.70;1.00;;;;;;4840365;29;20514;-45
2023/05/10 09:35:33;;;;;;;5.28;3.30;;;18.70;1.00;;;;;;4830802;29;20082;-43
2023/05/10 09:38:03;;;;;;;3.25;2.33;;;18.70;1.00;;;;;;4830870;29;20054;-43
2023/05/10 09:40:30;;;;;;;4.47;2.97;;;18.80;1.00;;;;;;4835626;29;20056;-43
2023/05/10 09:43:01;;;;;;;5.85;3.08;;;18.70;1.00;;;;;;4882952;23;20058;-45
2023/05/10 09:45:30;;;;;;;3.90;2.63;;;18.70;1.00;;;;;;4837419;29;20049;-44
2023/05/10 09:47:59;;;;;;;3.70;2.80;;;18.70;1.00;;;;;;4833610;29;20053;-44
2023/05/10 09:50:26;;;;;;;4.75;2.85;;;18.70;1.00;;;;;;4834695;29;20042;-43
2023/05/10 09:52:57;;;;;;;4.38;3.08;;;18.70;1.00;;;;;;4834133;29;20467;-43
2023/05/10 09:55:26;;;;;;;4.68;3.20;;;18.80;1.00;;;;;;4819747;29;20041;-44
2023/05/10 09:58:00;;;;;;;3.83;3.35;;;18.70;1.00;;;;;;4841450;29;20518;-44
2023/05/10 10:00:28;;;;;;;5.57;3.13;;;18.80;1.00;;;;;;4838295;29;20077;-43
2023/05/10 10:02:57;;;;;;;3.47;2.60;;;18.70;1.00;;;;;;4841387;29;20049;-43
2023/05/10 10:05:31;;;;;;;4.63;2.95;;;18.70;1.00;;;;;;4823447;29;20080;-45
2023/05/10 10:07:59;;;;;;;4.75;2.95;;;18.80;1.00;;;;;;4823153;29;20058;-46
2023/05/10 10:10:27;;;;;;;5.22;2.95;;;18.80;1.00;;;;;;4837577;29;20078;-48
2023/05/10 10:12:55;;;;;;;3.63;3.00;;;18.70;1.00;;;;;;4825832;29;20053;-44
2023/05/10 10:15:22;;;;;;;3.72;2.72;;;18.80;1.00;;;;;;4827536;29;20384;-44
2023/05/10 10:17:51;;;;;;;5.13;3.03;;;18.80;1.00;;;;;;4832924;29;20417;-44
2023/05/10 10:20:19;;;;;;;5.28;3.28;;;18.80;1.00;;;;;;4831825;29;20094;-44
2023/05/10 10:22:47;;;;;;;4.30;2.85;;;18.70;1.00;;;;;;4841030;29;20414;-46
2023/05/10 10:25:15;;;;;;;4.63;3.22;;;18.80;1.00;;;;;;4838449;29;20391;-44
2023/05/10 10:27:51;;;;;;;4.82;2.78;;;18.80;1.00;;;;;;4830377;29;20046;-43
2023/05/10 10:30:48;;;;;;;3.75;2.53;;;18.80;1.00;;;;;;4835056;29;20515;-44
2023/05/10 10:33:48;;;;;;;4.47;2.88;;;18.80;1.00;;;;;;4831028;29;20103;-44
2023/05/10 10:36:15;;;;;;;4.38;3.05;;;18.80;1.00;;;;;;4839572;29;20110;-43
2023/05/10 10:38:48;;;;;;;3.55;2.85;;;18.80;1.00;;;;;;4840816;29;20124;-45
2023/05/10 10:41:30;;;;;;;4.43;2.42;;;18.80;1.00;;;;;;4840541;29;20422;-44
2023/05/10 10:44:25;;;;;;;3.28;2.75;;;18.80;1.00;;;;;;5135615;23;20526;-43
2023/05/10 10:47:30;;;;;;;3.53;2.75;;;18.80;1.00;;;;;;4816212;29;20047;-44
2023/05/10 10:50:00;;;;;;;5.13;2.88;;;18.80;1.00;;;;;;4808933;29;20046;-45
2023/05/10 10:52:33;;;;;;;3.85;3.00;;;18.80;1.00;;;;;;4808534;29;20175;-43
2023/05/10 10:55:03;;;;;;;3.47;2.58;;;18.80;1.00;;;;;;4822230;29;20046;-46
2023/05/10 10:57:51;;;;;;;3.55;2.72;;;18.80;1.00;;;;;;4818636;29;20047;-43
2023/05/10 11:00:22;;;;;;;3.63;2.63;;;18.80;1.00;;;;;;4821592;29;20050;-43
2023/05/10 11:03:18;;;;;;;3.42;2.72;;;18.80;1.00;;;;;;4815554;29;20042;-45
2023/05/10 11:05:46;;;;;;;4.32;3.20;;;18.80;1.00;;;;;;4812539;29;20125;-43
2023/05/10 11:08:27;;;;;;;3.40;2.67;;;18.80;1.00;;;;;;4822313;29;20053;-46
2023/05/10 11:10:59;;;;;;;3.47;2.53;;;18.80;1.00;;;;;;4822540;29;20074;-44
2023/05/10 11:13:48;;;;;;;3.50;2.58;;;18.80;1.00;;;;;;4800646;29;20643;-45
2023/05/10 11:16:18;;;;;;;3.05;2.28;;;18.90;1.00;;;;;;4815285;29;20042;-45
2023/05/10 11:19:10;;;;;;;3.13;2.63;;;18.90;1.00;;;;;;4811772;29;20043;-43
2023/05/10 11:21:51;;;;;;;2.60;2.00;;;18.90;1.00;;;;;;4810570;29;20518;-44
2023/05/10 11:24:20;;;;;;;3.63;2.70;;;18.90;1.00;;;;;;4822139;29;20536;-44
2023/05/10 11:26:50;;;;;;;2.97;2.60;;;18.90;1.00;;;;;;4814670;29;20047;-44
2023/05/10 11:29:17;;;;;;;4.50;2.65;;;18.90;1.00;;;;;;4824011;29;20053;-43
2023/05/10 11:31:46;;;;;;;4.78;2.63;;;18.90;1.00;;;;;;4824296;29;20062;-44
2023/05/10 11:34:35;;;;;;;3.22;2.72;;;18.90;1.00;;;;;;4816065;29;20074;-43
2023/05/10 11:37:02;;;;;;;2.30;1.73;;;18.90;1.00;;;;;;4822239;29;20126;-46
2023/05/10 11:39:30;;;;;;;2.38;2.17;;;18.90;1.00;;;;;;4825491;29;20050;-43
2023/05/10 11:41:58;;;;;;;3.05;1.95;;;18.90;1.00;;;;;;4825366;29;20099;-44
2023/05/10 11:44:31;;;;;;;2.80;1.85;;;19.00;1.00;;;;;;4824823;29;20121;-46
2023/05/10 11:47:00;;;;;;;3.33;2.65;;;19.00;1.00;;;;;;4912695;23;20146;-45
2023/05/10 11:49:27;;;;;;;2.67;2.20;;;18.90;1.00;;;;;;4837452;29;20212;-48
2023/05/10 11:52:07;;;;;;;3.13;2.53;;;19.00;1.00;;;;;;4836848;29;20163;-44
2023/05/10 11:54:34;;;;;;;3.30;2.00;;;19.00;1.00;;;;;;4835341;29;20050;-45
2023/05/10 11:57:01;;;;;;;3.00;2.28;;;18.90;1.00;;;;;;4843178;29;20050;-44
2023/05/10 11:59:28;;;;;;;2.92;2.33;;;19.00;1.00;;;;;;4825571;29;20042;-46
2023/05/10 12:01:55;;;;;;;2.40;1.80;;;19.00;1.00;;;;;;4839419;29;20045;-45
2023/05/10 12:04:22;;;;;;;3.15;2.17;;;19.00;1.00;;;;;;4835180;29;20106;-44
2023/05/10 12:06:49;;;;;;;2.47;2.05;;;19.00;1.00;;;;;;4837263;29;20046;-46
2023/05/10 12:09:16;;;;;;;2.15;1.80;;;19.00;1.00;;;;;;4826906;29;20423;-45
2023/05/10 12:11:48;;;;;;;2.95;2.20;;;19.10;1.00;;;;;;4835769;29;20529;-45
2023/05/10 12:14:16;;;;;;;1.92;1.60;;;19.10;1.00;;;;;;4833742;29;20106;-44
2023/05/10 12:16:43;;;;;;;3.20;2.53;;;19.10;1.00;;;;;;4831641;29;20407;-46
2023/05/10 12:19:10;;;;;;;2.95;1.88;;;19.10;1.00;;;;;;4840661;29;20049;-43
2023/05/10 12:21:38;;;;;;;2.53;1.85;;;19.10;1.00;;;;;;4840554;29;20056;-43
2023/05/10 12:24:06;;;;;;;2.97;2.28;;;19.10;1.00;;;;;;4834942;29;20043;-46
2023/05/10 12:26:34;;;;;;;2.13;1.55;;;19.10;1.00;;;;;;4838864;29;20042;-43
2023/05/10 12:29:20;;;;;;;2.15;1.80;;;19.10;1.00;;;;;;4824736;29;20043;-47
2023/05/10 12:31:57;;;;;;;1.88;1.48;;;19.10;1.00;;;;;;4832346;29;20046;-47
2023/05/10 12:34:31;;;;;;;2.17;1.45;;;19.10;1.00;;;;;;4834927;29;20056;-43
2023/05/10 12:36:58;;;;;;;2.03;1.83;;;19.10;1.00;;;;;;4842766;29;20333;-43
2023/05/10 12:39:25;;;;;;;2.47;1.95;;;19.10;1.00;;;;;;4842690;29;20074;-43
2023/05/10 12:41:52;;;;;;;2.33;1.60;;;19.10;1.00;;;;;;4836330;29;20042;-46
2023/05/10 12:44:19;;;;;;;1.73;1.38;;;19.20;1.00;;;;;;4826093;29;20074;-44
2023/05/10 12:47:18;;;;;;;2.65;1.92;;;19.20;1.00;;;;;;4887259;24;20042;31
2023/05/10 12:49:44;;;;;;;2.38;1.70;;;19.20;1.00;;;;;;4802515;29;20082;-45
2023/05/10 12:52:11;;;;;;;2.00;1.67;;;19.20;1.00;;;;;;4798238;29;20047;-46
2023/05/10 12:54:38;;;;;;;2.17;1.70;;;19.20;1.00;;;;;;4806259;29;20388;-44
2023/05/10 12:57:04;;;;;;;2.13;1.58;;;19.20;1.00;;;;;;4801151;29;20392;-44
2023/05/10 12:59:31;;;;;;;2.47;1.88;;;19.20;1.00;;;;;;4798621;29;20050;-45
2023/05/10 13:01:58;;;;;;;2.40;1.85;;;19.20;1.00;;;;;;4798598;29;20050;-51
2023/05/10 13:04:25;;;;;;;2.15;1.85;;;19.20;1.00;;;;;;4798011;29;20105;-48
2023/05/10 13:06:52;;;;;;;2.60;1.20;;;19.20;1.00;;;;;;4805722;29;20055;-45
2023/05/10 13:09:20;;;;;;;2.80;1.95;;;19.20;1.00;;;;;;4797335;29;20051;-45
2023/05/10 13:11:48;;;;;;;1.95;1.50;;;19.20;1.00;;;;;;4798353;29;20057;-44
2023/05/10 13:14:14;;;;;;;2.67;1.60;;;19.20;1.00;;;;;;4796773;29;20108;-45
2023/05/10 13:16:41;;;;;;;2.08;1.60;;;19.20;1.00;;;;;;4787735;29;20138;-45